createdAt,value
2023-03-05T00:00:54.589Z,13.02
2023-03-05T00:05:57.703Z,14.15
2023-03-05T00:11:01.460Z,13.73
2023-03-05T00:16:08.905Z,14.45
2023-03-05T00:21:21.218Z,12.03
2023-03-05T00:26:25.229Z,15.43
2023-03-05T00:31:32.085Z,15.50
2023-03-05T00:36:34.932Z,14.60
2023-03-05T00:41:37.224Z,14.10
2023-03-05T00:46:39.177Z,13.90
2023-03-05T00:51:41.318Z,14.93
2023-03-05T00:56:43.023Z,15.00
2023-03-05T01:01:44.725Z,14.10
2023-03-05T01:06:46.746Z,15.68
2023-03-05T01:11:48.752Z,15.15
2023-03-05T01:16:50.340Z,14.25
2023-03-05T01:21:52.145Z,13.98
2023-03-05T01:26:53.739Z,14.40
2023-03-05T01:31:55.406Z,16.25
2023-03-05T01:36:56.994Z,15.10
2023-03-05T01:41:58.586Z,15.23
2023-03-05T01:47:00.317Z,13.60
2023-03-05T01:52:11.816Z,14.25
2023-03-05T01:57:46.970Z,14.13
2023-03-05T02:02:50.477Z,14.02
2023-03-05T02:07:54.491Z,12.23
2023-03-05T02:13:00.505Z,14.57
2023-03-05T02:18:02.488Z,13.75
2023-03-05T02:23:04.117Z,14.38
2023-03-05T02:28:37.511Z,14.25
2023-03-05T02:33:39.489Z,14.43
2023-03-05T02:38:42.628Z,13.27
2023-03-05T02:43:44.693Z,14.20
2023-03-05T02:48:46.951Z,14.02
2023-03-05T02:53:49.370Z,14.85
2023-03-05T02:58:51.994Z,14.45
2023-03-05T03:03:54.688Z,15.32
2023-03-05T03:08:56.321Z,14.80
2023-03-05T03:13:59.872Z,14.90
2023-03-05T03:19:01.452Z,14.07
2023-03-05T03:24:03.251Z,15.20
2023-03-05T03:29:04.892Z,13.98
2023-03-05T03:34:06.610Z,14.63
2023-03-05T03:39:09.971Z,15.18
2023-03-05T03:44:13.116Z,15.40
2023-03-05T03:49:24.220Z,14.98
2023-03-05T03:54:26.176Z,14.88
2023-03-05T03:59:27.803Z,15.18
2023-03-05T04:04:30.356Z,14.88
2023-03-05T04:09:32.007Z,14.77
2023-03-05T04:14:34.033Z,14.45
2023-03-05T04:19:35.605Z,15.48
2023-03-05T04:24:38.188Z,14.57
2023-03-05T04:29:39.868Z,15.98
2023-03-05T04:34:41.518Z,14.35
2023-03-05T04:39:43.738Z,14.00
2023-03-05T04:44:46.185Z,13.32
2023-03-05T04:49:47.822Z,14.93
2023-03-05T04:54:49.554Z,14.25
2023-03-05T04:59:51.188Z,14.75
2023-03-05T05:04:53.518Z,14.23
2023-03-05T05:09:55.247Z,14.13
2023-03-05T05:14:58.024Z,15.10
2023-03-05T05:20:07.729Z,14.05
2023-03-05T05:25:10.496Z,14.90
2023-03-05T05:30:12.691Z,14.75
2023-03-05T05:35:14.314Z,14.10
2023-03-05T05:40:15.933Z,15.55
2023-03-05T05:45:17.922Z,14.30
2023-03-05T05:50:20.714Z,13.68
2023-03-05T05:55:22.348Z,14.55
2023-03-05T06:00:24.113Z,14.70
2023-03-05T06:05:25.915Z,13.73
2023-03-05T06:10:27.544Z,15.02
2023-03-05T06:15:29.228Z,14.35
2023-03-05T06:20:30.844Z,15.13
2023-03-05T06:25:32.477Z,15.15
2023-03-05T06:30:34.150Z,15.10
2023-03-05T06:35:40.080Z,15.88
2023-03-05T06:40:41.793Z,14.25
2023-03-05T06:45:43.570Z,14.77
2023-03-05T06:50:45.244Z,14.00
2023-03-05T06:55:46.864Z,16.38
2023-03-05T07:00:48.605Z,14.02
2023-03-05T07:05:50.197Z,18.25
2023-03-05T07:10:51.997Z,14.10
2023-03-05T07:15:54.226Z,13.55
2023-03-05T07:20:55.854Z,14.40
2023-03-05T07:25:57.624Z,13.70
2023-03-05T07:31:01.657Z,13.63
2023-03-05T07:36:05.150Z,14.13
2023-03-05T07:41:10.929Z,14.38
2023-03-05T07:46:15.461Z,14.65
2023-03-05T07:51:19.936Z,15.20
2023-03-05T07:56:31.904Z,16.75
2023-03-05T08:01:34.490Z,17.77
2023-03-05T08:11:41.207Z,16.20
2023-03-05T08:16:42.829Z,16.95
2023-03-05T08:21:45.302Z,16.10
2023-03-05T08:26:47.141Z,16.17
2023-03-05T08:31:49.748Z,26.75
2023-03-05T08:36:51.653Z,15.23
2023-03-05T08:41:53.309Z,13.95
2023-03-05T08:46:55.119Z,13.25
2023-03-05T08:51:56.877Z,14.45
2023-03-05T08:56:58.704Z,14.80
2023-03-05T09:02:01.810Z,14.48
2023-03-05T09:07:03.628Z,15.43
2023-03-05T09:12:05.524Z,14.73
2023-03-05T09:17:07.696Z,15.90
2023-03-05T09:22:09.375Z,15.07
2023-03-05T09:27:10.991Z,15.90
2023-03-05T09:32:12.648Z,15.85
2023-03-05T09:37:14.376Z,14.43
2023-03-05T09:42:29.495Z,15.02
2023-03-05T09:47:52.192Z,16.23
2023-03-05T09:52:57.540Z,14.93
2023-03-05T09:58:06.766Z,16.27
2023-03-05T10:03:30.254Z,15.85
2023-03-05T10:08:52.245Z,14.93
2023-03-05T10:13:54.200Z,14.27
2023-03-05T10:19:34.357Z,16.00
2023-03-05T10:24:49.730Z,14.63
2023-03-05T10:30:21.154Z,14.07
2023-03-05T10:35:59.393Z,14.98
2023-03-05T10:41:12.588Z,14.65
2023-03-05T10:46:20.886Z,13.48
2023-03-05T10:51:39.566Z,14.38
2023-03-05T10:56:41.178Z,14.90
2023-03-05T11:02:02.539Z,13.48
2023-03-05T11:07:16.144Z,13.32
2023-03-05T11:12:22.029Z,15.13
2023-03-05T11:17:31.523Z,13.38
2023-03-05T11:22:35.900Z,13.27
2023-03-05T11:27:44.508Z,13.48
2023-03-05T11:32:47.865Z,14.13
2023-03-05T11:38:00.979Z,12.18
2023-03-05T11:43:05.007Z,12.93
2023-03-05T11:48:15.483Z,13.50
2023-03-05T11:53:35.424Z,12.70
2023-03-05T11:59:04.586Z,12.35
2023-03-05T12:04:08.553Z,15.77
2023-03-05T12:09:37.859Z,13.65
2023-03-05T12:14:51.661Z,12.40
2023-03-05T12:19:53.269Z,12.50
2023-03-05T12:25:29.638Z,9.65
2023-03-05T12:30:33.999Z,8.45
2023-03-05T12:35:38.593Z,8.68
2023-03-05T12:40:40.259Z,9.10
2023-03-05T12:45:42.497Z,8.10
2023-03-05T12:50:45.033Z,8.70
2023-03-05T12:56:25.662Z,7.03
2023-03-05T13:01:41.183Z,7.25
2023-03-05T13:06:42.997Z,7.10
2023-03-05T13:11:51.299Z,8.48
2023-03-05T13:16:53.096Z,5.82
2023-03-05T13:22:04.834Z,5.20
2023-03-05T13:27:30.016Z,4.50
2023-03-05T13:32:33.100Z,5.05
2023-03-05T13:37:37.539Z,4.35
2023-03-05T13:42:39.161Z,4.18
2023-03-05T13:47:53.594Z,4.00
2023-03-05T13:52:58.369Z,4.13
2023-03-05T13:58:00.934Z,4.10
2023-03-05T14:03:23.753Z,2.75
2023-03-05T14:08:26.753Z,3.00
2023-03-05T14:13:29.457Z,3.25
2023-03-05T14:18:31.060Z,3.28
2023-03-05T14:23:32.695Z,3.38
2023-03-05T14:28:34.479Z,5.22
2023-03-05T14:33:36.645Z,6.22
2023-03-05T14:38:43.220Z,5.13
2023-03-05T14:43:44.848Z,6.05
2023-03-05T14:48:46.985Z,4.10
2023-03-05T14:53:51.080Z,3.55
2023-03-05T14:58:53.921Z,2.60
2023-03-05T15:03:55.593Z,3.30
2023-03-05T15:08:57.295Z,3.72
2023-03-05T15:13:58.920Z,3.95
2023-03-05T15:19:00.900Z,7.50
2023-03-05T15:24:02.602Z,5.63
2023-03-05T15:29:04.442Z,7.22
2023-03-05T15:34:06.966Z,3.90
2023-03-05T15:39:08.560Z,2.78
2023-03-05T15:44:10.245Z,3.38
2023-03-05T15:49:12.046Z,3.08
2023-03-05T15:54:13.693Z,3.65
2023-03-05T15:59:15.415Z,3.15
2023-03-05T16:04:18.028Z,2.55
2023-03-05T16:09:21.755Z,3.25
2023-03-05T16:14:26.192Z,3.00
2023-03-05T16:19:28.091Z,2.75
2023-03-05T16:24:29.774Z,3.60
2023-03-05T16:29:32.493Z,4.05
2023-03-05T16:34:34.862Z,3.38
2023-03-05T16:39:36.507Z,4.35
2023-03-05T16:44:38.088Z,3.78
2023-03-05T16:49:40.419Z,3.75
2023-03-05T16:54:42.240Z,4.13
2023-03-05T16:59:44.921Z,14.73
2023-03-05T17:04:46.808Z,9.23
2023-03-05T17:09:50.349Z,3.97
2023-03-05T17:14:52.190Z,3.13
2023-03-05T17:19:53.865Z,4.10
2023-03-05T17:24:55.481Z,3.70
2023-03-05T17:29:57.135Z,13.27
2023-03-05T17:34:58.727Z,6.38
2023-03-05T17:40:00.621Z,5.82
2023-03-05T17:45:04.403Z,9.50
2023-03-05T17:50:07.533Z,12.30
2023-03-05T17:55:11.043Z,6.13
2023-03-05T18:00:28.245Z,3.67
2023-03-05T18:05:30.375Z,3.58
2023-03-05T18:10:33.412Z,3.38
2023-03-05T18:15:35.996Z,3.33
2023-03-05T18:20:37.671Z,3.38
2023-03-05T18:25:39.541Z,6.25
2023-03-05T18:30:42.349Z,5.05
2023-03-05T18:35:44.017Z,4.90
2023-03-05T18:40:47.093Z,6.10
2023-03-05T18:45:53.681Z,3.55
2023-03-05T18:50:55.334Z,2.80
2023-03-05T18:55:56.916Z,2.53
2023-03-05T19:00:58.684Z,4.47
2023-03-05T19:06:00.396Z,4.88
2023-03-05T19:11:02.655Z,6.20
2023-03-05T19:16:11.729Z,4.68
2023-03-05T19:21:13.376Z,4.90
2023-03-05T19:26:15.247Z,4.65
2023-03-05T19:31:16.892Z,5.75
2023-03-05T19:36:18.544Z,4.90
2023-03-05T19:41:21.777Z,6.18
2023-03-05T19:46:23.556Z,7.18
2023-03-05T19:51:26.364Z,5.25
2023-03-05T19:56:28.023Z,5.68
2023-03-05T20:01:29.688Z,6.43
2023-03-05T20:06:33.606Z,7.78
2023-03-05T20:11:35.763Z,6.18
2023-03-05T20:16:37.878Z,5.68
2023-03-05T20:21:41.068Z,5.82
2023-03-05T20:26:44.516Z,5.82
2023-03-05T20:31:47.180Z,6.63
2023-03-05T20:36:49.289Z,5.75
2023-03-05T20:41:51.226Z,5.28
2023-03-05T20:47:02.598Z,5.93
2023-03-05T20:52:04.593Z,6.03
2023-03-05T20:57:06.232Z,8.13
2023-03-05T21:02:09.762Z,5.20
2023-03-05T21:07:11.479Z,4.47
2023-03-05T21:12:13.236Z,4.57
2023-03-05T21:17:15.136Z,4.72
2023-03-05T21:22:16.753Z,5.15
2023-03-05T21:27:18.458Z,4.72
2023-03-05T21:32:20.118Z,7.10
2023-03-05T21:37:21.715Z,9.88
2023-03-05T21:42:23.367Z,8.60
2023-03-05T21:47:24.988Z,7.05
2023-03-05T21:52:26.789Z,6.53
2023-03-05T21:57:29.203Z,5.45
2023-03-05T22:02:30.809Z,5.10
2023-03-05T22:07:33.194Z,4.50
2023-03-05T22:12:54.085Z,4.00
2023-03-05T22:17:55.780Z,3.92
2023-03-05T22:22:57.365Z,4.30
2023-03-05T22:27:59.232Z,4.47
2023-03-05T22:33:01.656Z,4.25
2023-03-05T22:38:03.265Z,4.75
2023-03-05T22:43:04.953Z,4.93
2023-03-05T22:48:07.287Z,4.40
2023-03-05T22:53:08.941Z,4.50
2023-03-05T22:58:10.565Z,4.68
2023-03-05T23:03:12.231Z,4.60
2023-03-05T23:08:14.306Z,4.45
2023-03-05T23:13:15.982Z,4.70
2023-03-05T23:18:17.583Z,5.20
2023-03-05T23:23:20.037Z,4.57
2023-03-05T23:28:21.773Z,4.88
2023-03-05T23:33:24.189Z,4.93
2023-03-05T23:38:27.823Z,5.18
2023-03-05T23:43:30.180Z,4.40
2023-03-05T23:48:31.978Z,4.68
2023-03-05T23:53:33.644Z,4.82
2023-03-05T23:58:36.275Z,4.68
